Lorraine — A8IZ3 — position and weather

sailwx.info

Track history (hours):
 
Tides and Currents Weather Stations Pressure Air Temp Water Temp Dewpoint Dewpoint Depression Visibility Wind Speed Wind Dir Waves Ship Positions

Lorraine

Last reported at 2014-Jul-30 06:32 UTC. Time now 2014-Aug-01 01:44 UTC.
Position N 38°32' E 025°44'.

Length 221 m.

MMSI: 636012905.

Date/timePositionNaut miles runAvg speedWind from/ knotsBaromVisibWave heightAir tempDewpointWater temp
2014-Jul-30 06:32N 38°32' E 025°44'1515.8
2014-Jul-30 05:33N 38°16' E 025°44'1616.2
2014-Jul-30 04:33N 38°00' E 025°45'4915.8
2014-Jul-30 01:29N 37°13' E 026°01'1516.1
2014-Jul-30 00:33N 36°60' E 026°09'1615.8
2014-Jul-29 23:33N 36°49' E 026°24'1515.2
2014-Jul-29 22:34N 36°38' E 026°37'1916.4
2014-Jul-29 21:24N 36°24' E 026°53'1416.4
2014-Jul-29 20:33N 36°14' E 027°04'1616.3
2014-Jul-29 19:33N 36°01' E 027°17'2016.0
2014-Jul-29 18:19N 35°46' E 027°33'1215.0
2014-Jul-29 17:33N 35°39' E 027°44'1716.6
2014-Jul-29 16:32N 35°39' E 028°04'1615.9
2014-Jul-29 15:33N 35°40' E 028°24'1916.0
2014-Jul-29 14:24N 35°40' E 028°46'2714.5
2014-Jul-29 12:33N 35°42' E 029°19'  
2014-Jul-24 18:12N 31°22' E 032°17'0 0.0
2014-Jul-24 17:33N 31°22' E 032°17'1 1.1
2014-Jul-24 16:33N 31°23' E 032°18'1010.2
2014-Jul-24 15:33N 31°32' E 032°12'1615.7
2014-Jul-24 14:33N 31°43' E 031°59'1413.8
2014-Jul-24 13:33N 31°34' E 031°47'6 6.3
2014-Jul-24 12:32N 31°27' E 031°46'0 0.0
2014-Jul-24 05:32N 31°27' E 031°46'0 0.0
2014-Jul-24 04:33N 31°27' E 031°46'0 0.0
2014-Jul-24 03:33N 31°27' E 031°46'0 0.0
2014-Jul-24 02:30N 31°27' E 031°46'0 0.0
2014-Jul-24 01:32N 31°27' E 031°46'0 0.0
2014-Jul-24 00:33N 31°27' E 031°46'0 0.0
2014-Jul-23 23:32N 31°27' E 031°46'0 0.0
2014-Jul-23 22:33N 31°27' E 031°46'0 0.0
2014-Jul-23 21:33N 31°27' E 031°46'0 0.0
2014-Jul-23 20:33N 31°27' E 031°46'0 0.0
2014-Jul-23 19:33N 31°27' E 031°46'0 0.0
2014-Jul-23 18:33N 31°27' E 031°46'0 0.0
2014-Jul-23 17:33N 31°27' E 031°46'0 0.0
2014-Jul-23 16:33N 31°27' E 031°46'0 0.0
2014-Jul-23 15:33N 31°27' E 031°46'0 0.0
2014-Jul-23 14:33N 31°27' E 031°46'0 0.0
2014-Jul-23 09:33N 31°27' E 031°46'0 0.0
2014-Jul-23 07:27N 31°27' E 031°46'10 8.2
2014-Jul-23 06:16N 31°37' E 031°47'710.1
2014-Jul-23 05:33N 31°43' E 031°43'1513.8
2014-Jul-23 04:30N 31°45' E 031°26'1414.6
2014-Jul-23 03:33N 31°45' E 031°10'1514.6
2014-Jul-23 02:33N 31°43' E 030°52'1414.5
2014-Jul-23 01:33N 31°41' E 030°36'1414.4
2014-Jul-23 00:33N 31°39' E 030°19'2914.3
2014-Jul-22 22:33N 31°20' E 029°54'1110.0
2014-Jul-22 21:29N 31°10' E 029°50'2 1.2
2014-Jul-22 19:22N 31°11' E 029°53'0 0.0
2014-Jul-22 18:24N 31°11' E 029°53'0 0.0
2014-Jul-22 17:33N 31°11' E 029°53'0 0.0
2014-Jul-22 16:33N 31°11' E 029°53'0 0.0
2014-Jul-22 13:30N 31°11' E 029°53'  
Track history (hours):
 
Tides and Currents Weather Stations Pressure Air Temp Water Temp Dewpoint Dewpoint Depression Visibility Wind Speed Wind Dir Waves Ship Positions

Lorraine

Last reported at 2014-Jul-30 06:32 UTC. Time now 2014-Aug-01 01:44 UTC.
Position N 38°32' E 025°44'.

Length 221 m.

MMSI: 636012905.

Date/timePositionNaut miles runAvg speedWind from/ knotsBaromVisibWave heightAir tempDewpointWater temp
2014-Jul-30 06:32N 38°32' E 025°44'1515.8
2014-Jul-30 05:33N 38°16' E 025°44'1616.2
2014-Jul-30 04:33N 38°00' E 025°45'4915.8
2014-Jul-30 01:29N 37°13' E 026°01'1516.1
2014-Jul-30 00:33N 36°60' E 026°09'1615.8
2014-Jul-29 23:33N 36°49' E 026°24'1515.2
2014-Jul-29 22:34N 36°38' E 026°37'1916.4
2014-Jul-29 21:24N 36°24' E 026°53'1416.4
2014-Jul-29 20:33N 36°14' E 027°04'1616.3
2014-Jul-29 19:33N 36°01' E 027°17'2016.0
2014-Jul-29 18:19N 35°46' E 027°33'1215.0
2014-Jul-29 17:33N 35°39' E 027°44'1716.6
2014-Jul-29 16:32N 35°39' E 028°04'1615.9
2014-Jul-29 15:33N 35°40' E 028°24'1916.0
2014-Jul-29 14:24N 35°40' E 028°46'2714.5
2014-Jul-29 12:33N 35°42' E 029°19'  
2014-Jul-24 18:12N 31°22' E 032°17'0 0.0
2014-Jul-24 17:33N 31°22' E 032°17'1 1.1
2014-Jul-24 16:33N 31°23' E 032°18'1010.2
2014-Jul-24 15:33N 31°32' E 032°12'1615.7
2014-Jul-24 14:33N 31°43' E 031°59'1413.8
2014-Jul-24 13:33N 31°34' E 031°47'6 6.3
2014-Jul-24 12:32N 31°27' E 031°46'0 0.0
2014-Jul-24 05:32N 31°27' E 031°46'0 0.0
2014-Jul-24 04:33N 31°27' E 031°46'0 0.0
2014-Jul-24 03:33N 31°27' E 031°46'0 0.0
2014-Jul-24 02:30N 31°27' E 031°46'0 0.0
2014-Jul-24 01:32N 31°27' E 031°46'0 0.0
2014-Jul-24 00:33N 31°27' E 031°46'0 0.0
2014-Jul-23 23:32N 31°27' E 031°46'0 0.0
2014-Jul-23 22:33N 31°27' E 031°46'0 0.0
2014-Jul-23 21:33N 31°27' E 031°46'0 0.0
2014-Jul-23 20:33N 31°27' E 031°46'0 0.0
2014-Jul-23 19:33N 31°27' E 031°46'0 0.0
2014-Jul-23 18:33N 31°27' E 031°46'0 0.0
2014-Jul-23 17:33N 31°27' E 031°46'0 0.0
2014-Jul-23 16:33N 31°27' E 031°46'0 0.0
2014-Jul-23 15:33N 31°27' E 031°46'0 0.0
2014-Jul-23 14:33N 31°27' E 031°46'0 0.0
2014-Jul-23 09:33N 31°27' E 031°46'0 0.0
2014-Jul-23 07:27N 31°27' E 031°46'10 8.2
2014-Jul-23 06:16N 31°37' E 031°47'710.1
2014-Jul-23 05:33N 31°43' E 031°43'1513.8
2014-Jul-23 04:30N 31°45' E 031°26'1414.6
2014-Jul-23 03:33N 31°45' E 031°10'1514.6
2014-Jul-23 02:33N 31°43' E 030°52'1414.5
2014-Jul-23 01:33N 31°41' E 030°36'1414.4
2014-Jul-23 00:33N 31°39' E 030°19'2914.3
2014-Jul-22 22:33N 31°20' E 029°54'1110.0
2014-Jul-22 21:29N 31°10' E 029°50'2 1.2
2014-Jul-22 19:22N 31°11' E 029°53'0 0.0
2014-Jul-22 18:24N 31°11' E 029°53'0 0.0
2014-Jul-22 17:33N 31°11' E 029°53'0 0.0
2014-Jul-22 16:33N 31°11' E 029°53'0 0.0
2014-Jul-22 13:30N 31°11' E 029°53'  

Dump ship's entire track history